createdAt,value
2023-01-02T00:02:18.666Z,71.22
2023-01-02T00:05:06.150Z,71.18
2023-01-02T00:07:52.284Z,71.29
2023-01-02T00:10:38.857Z,70.97
2023-01-02T00:13:25.539Z,71.44
2023-01-02T00:16:12.197Z,70.90
2023-01-02T00:18:58.766Z,70.99
2023-01-02T00:21:45.477Z,71.02
2023-01-02T00:24:32.116Z,70.84
2023-01-02T00:27:18.657Z,70.73
2023-01-02T00:30:05.914Z,70.62
2023-01-02T00:32:52.446Z,70.97
2023-01-02T00:35:39.298Z,70.60
2023-01-02T00:38:26.191Z,70.05
2023-01-02T00:41:12.744Z,70.07
2023-01-02T00:43:59.230Z,69.96
2023-01-02T00:46:46.077Z,70.23
2023-01-02T00:49:32.673Z,70.46
2023-01-02T00:52:19.318Z,70.15
2023-01-02T00:55:06.388Z,70.01
2023-01-02T00:57:53.176Z,70.23
2023-01-02T01:00:39.813Z,70.04
2023-01-02T01:03:26.924Z,70.13
2023-01-02T01:06:14.659Z,70.15
2023-01-02T01:09:01.488Z,70.27
2023-01-02T01:11:48.480Z,70.54
2023-01-02T01:14:35.316Z,70.55
2023-01-02T01:17:21.649Z,70.86
2023-01-02T01:20:09.359Z,70.95
2023-01-02T01:22:56.268Z,71.16
2023-01-02T01:25:42.599Z,71.28
2023-01-02T01:28:29.031Z,71.02
2023-01-02T01:31:16.758Z,71.00
2023-01-02T01:34:03.473Z,70.91
2023-01-02T01:36:49.846Z,70.87
2023-01-02T01:39:36.380Z,71.26
2023-01-02T01:42:22.983Z,70.67
2023-01-02T01:45:14.343Z,71.24
2023-01-02T01:48:01.022Z,71.18
2023-01-02T01:50:47.566Z,70.56
2023-01-02T01:53:34.422Z,70.94
2023-01-02T01:56:21.748Z,70.79
2023-01-02T01:59:10.526Z,70.61
2023-01-02T02:01:58.259Z,70.65
2023-01-02T02:04:45.511Z,71.11
2023-01-02T02:07:33.103Z,71.21
2023-01-02T02:10:19.826Z,71.10
2023-01-02T02:13:06.164Z,71.09
2023-01-02T02:16:12.261Z,71.25
2023-01-02T02:19:12.686Z,71.46
2023-01-02T02:22:18.099Z,71.31
2023-01-02T02:25:29.323Z,71.23
2023-01-02T02:28:21.418Z,71.31
2023-01-02T02:31:36.348Z,71.22
2023-01-02T02:34:43.967Z,71.25
2023-01-02T02:37:41.687Z,71.17
2023-01-02T02:41:09.931Z,71.39
2023-01-02T02:44:23.374Z,71.36
2023-01-02T02:47:17.486Z,71.03
2023-01-02T02:50:26.123Z,70.89
2023-01-02T02:53:24.210Z,70.71
2023-01-02T02:56:12.139Z,70.86
2023-01-02T02:58:59.142Z,70.53
2023-01-02T03:01:46.119Z,70.72
2023-01-02T03:04:33.370Z,70.88
2023-01-02T03:07:40.234Z,70.62
2023-01-02T03:10:26.955Z,70.59
2023-01-02T03:13:42.519Z,70.18
2023-01-02T03:16:35.933Z,70.23
2023-01-02T03:19:42.068Z,70.13
2023-01-02T03:22:34.881Z,70.00
2023-01-02T03:25:22.268Z,70.18
2023-01-02T03:28:10.548Z,70.36
2023-01-02T03:30:58.360Z,70.32
2023-01-02T03:33:50.504Z,70.12
2023-01-02T03:36:38.584Z,70.11
2023-01-02T03:39:29.921Z,70.21
2023-01-02T03:42:21.533Z,70.11
2023-01-02T03:45:16.317Z,70.22
2023-01-02T03:48:14.634Z,70.09
2023-01-02T03:51:01.964Z,70.36
2023-01-02T03:53:51.108Z,70.52
2023-01-02T03:56:54.806Z,70.32
2023-01-02T03:59:49.083Z,70.34
2023-01-02T04:02:49.163Z,70.09
2023-01-02T04:05:56.818Z,70.23
2023-01-02T04:08:56.314Z,70.23
2023-01-02T04:11:46.894Z,70.10
2023-01-02T04:14:42.443Z,70.01
2023-01-02T04:17:32.338Z,69.98
2023-01-02T04:20:28.475Z,70.04
2023-01-02T04:23:25.405Z,70.32
2023-01-02T04:26:19.342Z,70.42
2023-01-02T04:29:06.085Z,70.46
2023-01-02T04:32:07.903Z,70.39
2023-01-02T04:34:55.377Z,70.55
2023-01-02T04:37:43.812Z,70.49
2023-01-02T04:40:30.966Z,70.32
2023-01-02T04:43:21.011Z,70.60
2023-01-02T04:46:07.737Z,70.67
2023-01-02T04:48:54.831Z,70.82
2023-01-02T04:51:41.809Z,70.78
2023-01-02T04:54:28.278Z,70.70
2023-01-02T04:57:15.086Z,70.99
2023-01-02T05:00:01.390Z,70.81
2023-01-02T05:02:48.209Z,71.11
2023-01-02T05:05:35.006Z,70.92
2023-01-02T05:08:21.359Z,70.83
2023-01-02T05:11:17.144Z,71.10
2023-01-02T05:14:07.365Z,70.75
2023-01-02T05:16:54.127Z,70.76
2023-01-02T05:19:40.925Z,71.05
2023-01-02T05:22:46.079Z,71.29
2023-01-02T05:25:34.558Z,71.02
2023-01-02T05:28:21.186Z,70.89
2023-01-02T05:31:08.446Z,71.10
2023-01-02T05:33:56.256Z,70.90
2023-01-02T05:36:43.784Z,71.25
2023-01-02T05:39:30.508Z,71.51
2023-01-02T05:42:17.058Z,71.72
2023-01-02T05:45:04.579Z,72.28
2023-01-02T05:47:50.984Z,72.02
2023-01-02T05:50:37.237Z,72.15
2023-01-02T05:53:23.715Z,72.39
2023-01-02T05:56:12.816Z,72.39
2023-01-02T05:58:59.568Z,72.42
2023-01-02T06:01:46.468Z,72.13
2023-01-02T06:04:33.257Z,72.16
2023-01-02T06:07:19.970Z,72.25
2023-01-02T06:10:07.139Z,72.06
2023-01-02T06:12:53.874Z,71.84
2023-01-02T06:15:40.294Z,71.46
2023-01-02T06:18:27.597Z,71.15
2023-01-02T06:21:16.680Z,70.94
2023-01-02T06:24:03.798Z,70.89
2023-01-02T06:26:50.671Z,70.78
2023-01-02T06:29:37.330Z,70.45
2023-01-02T06:32:23.801Z,70.15
2023-01-02T06:35:10.227Z,69.62
2023-01-02T06:37:56.977Z,69.42
2023-01-02T06:40:53.368Z,69.35
2023-01-02T06:43:43.989Z,69.19
2023-01-02T06:46:30.883Z,69.14
2023-01-02T06:49:19.165Z,69.34
2023-01-02T06:52:06.051Z,69.27
2023-01-02T06:54:52.670Z,69.48
2023-01-02T06:57:39.042Z,69.61
2023-01-02T07:00:26.013Z,69.51
2023-01-02T07:03:12.457Z,69.43
2023-01-02T07:06:01.428Z,69.47
2023-01-02T07:08:48.973Z,69.52
2023-01-02T07:11:35.904Z,69.33
2023-01-02T07:14:22.575Z,69.11
2023-01-02T07:17:09.128Z,68.95
2023-01-02T07:19:59.545Z,68.95
2023-01-02T07:22:53.137Z,68.99
2023-01-02T07:25:44.221Z,69.04
2023-01-02T07:28:31.537Z,69.09
2023-01-02T07:31:20.099Z,68.61
2023-01-02T07:34:06.978Z,68.67
2023-01-02T07:36:53.831Z,68.44
2023-01-02T07:39:40.452Z,68.71
2023-01-02T07:42:27.057Z,68.67
2023-01-02T07:45:13.354Z,68.64
2023-01-02T07:48:00.204Z,68.40
2023-01-02T07:50:47.082Z,68.63
2023-01-02T07:53:34.314Z,68.56
2023-01-02T07:56:20.800Z,68.63
2023-01-02T07:59:07.467Z,68.54
2023-01-02T08:01:54.138Z,68.64
2023-01-02T08:04:40.514Z,68.50
2023-01-02T08:07:27.299Z,68.13
2023-01-02T08:10:14.039Z,68.00
2023-01-02T08:13:00.844Z,67.59
2023-01-02T08:15:47.630Z,67.71
2023-01-02T08:18:34.719Z,67.69
2023-01-02T08:21:22.387Z,67.51
2023-01-02T08:24:09.327Z,67.52
2023-01-02T08:26:56.127Z,67.62
2023-01-02T08:29:42.853Z,67.57
2023-01-02T08:32:29.555Z,66.74
2023-01-02T08:35:16.498Z,66.37
2023-01-02T08:38:02.899Z,65.47
2023-01-02T08:40:49.353Z,64.95
2023-01-02T08:43:36.579Z,65.22
2023-01-02T08:46:23.019Z,65.40
2023-01-02T08:49:10.194Z,65.11
2023-01-02T08:51:57.035Z,64.81
2023-01-02T08:54:43.617Z,64.76
2023-01-02T08:57:30.137Z,64.71
2023-01-02T09:00:17.065Z,64.89
2023-01-02T09:03:03.898Z,64.58
2023-01-02T09:05:50.603Z,64.75
2023-01-02T09:08:36.970Z,64.42
2023-01-02T09:11:26.428Z,64.19
2023-01-02T09:14:12.890Z,63.09
2023-01-02T09:16:59.546Z,62.65
2023-01-02T09:19:45.826Z,62.36
2023-01-02T09:22:32.754Z,60.33
2023-01-02T09:25:24.146Z,59.83
2023-01-02T09:28:10.900Z,59.22
2023-01-02T09:30:57.485Z,58.03
2023-01-02T09:33:45.011Z,59.08
2023-01-02T09:36:33.074Z,57.64
2023-01-02T09:39:19.802Z,56.34
2023-01-02T09:42:08.924Z,53.94
2023-01-02T09:44:58.094Z,55.17
2023-01-02T09:47:47.554Z,54.37
2023-01-02T09:50:34.383Z,55.37
2023-01-02T09:53:21.264Z,54.53
2023-01-02T09:56:19.407Z,54.81
2023-01-02T09:59:47.337Z,55.48
2023-01-02T10:02:45.431Z,56.44
2023-01-02T10:05:46.015Z,57.12
2023-01-02T10:08:36.091Z,57.60
2023-01-02T10:11:25.645Z,57.09
2023-01-02T10:14:19.323Z,56.95
2023-01-02T10:17:07.665Z,56.34
2023-01-02T10:20:05.361Z,56.71
2023-01-02T10:22:57.633Z,56.07
2023-01-02T10:25:53.030Z,56.32
2023-01-02T10:28:46.306Z,56.41
2023-01-02T10:31:48.842Z,56.89
2023-01-02T10:35:07.568Z,56.90
2023-01-02T10:37:56.364Z,57.06
2023-01-02T10:40:45.477Z,55.41
2023-01-02T10:43:35.739Z,55.97
2023-01-02T10:46:22.370Z,56.27
2023-01-02T10:49:09.602Z,56.28
2023-01-02T10:52:06.741Z,55.82
2023-01-02T10:55:00.475Z,55.58
2023-01-02T10:57:51.606Z,56.59
2023-01-02T11:00:38.380Z,56.35
2023-01-02T11:03:28.190Z,57.20
2023-01-02T11:06:29.071Z,56.79
2023-01-02T11:09:21.893Z,57.20
2023-01-02T11:12:08.485Z,57.87
2023-01-02T11:15:12.236Z,57.99
2023-01-02T11:17:59.171Z,58.25
2023-01-02T11:20:53.525Z,58.27
2023-01-02T11:23:43.460Z,58.10
2023-01-02T11:26:33.248Z,58.27
2023-01-02T11:29:30.066Z,58.34
2023-01-02T11:32:27.846Z,58.34
2023-01-02T11:35:44.801Z,58.31
2023-01-02T11:38:56.880Z,58.35
2023-01-02T11:42:08.531Z,58.48
2023-01-02T11:45:31.504Z,58.43
2023-01-02T11:48:21.337Z,58.89
2023-01-02T11:51:17.780Z,59.10
2023-01-02T11:54:10.364Z,59.02
2023-01-02T11:56:58.998Z,59.01
2023-01-02T11:59:48.085Z,58.60
2023-01-02T12:02:39.867Z,58.86
2023-01-02T12:05:37.749Z,58.72
2023-01-02T12:08:55.607Z,58.81
2023-01-02T12:12:04.143Z,59.02
2023-01-02T12:15:07.436Z,59.09
2023-01-02T12:18:03.446Z,58.87
2023-01-02T12:21:06.554Z,59.15
2023-01-02T12:24:02.572Z,59.40
2023-01-02T12:26:49.308Z,59.82
2023-01-02T12:30:11.549Z,59.57
2023-01-02T12:33:11.995Z,59.10
2023-01-02T12:36:07.816Z,59.03
2023-01-02T12:39:08.383Z,58.50
2023-01-02T12:42:15.007Z,59.39
2023-01-02T12:45:01.958Z,59.10
2023-01-02T12:48:00.171Z,59.07
2023-01-02T12:51:05.701Z,58.68
2023-01-02T12:54:18.964Z,59.07
2023-01-02T12:57:22.343Z,58.60
2023-01-02T13:00:37.658Z,59.00
2023-01-02T13:03:42.917Z,58.54
2023-01-02T13:06:45.549Z,58.83
2023-01-02T13:09:37.471Z,58.95
2023-01-02T13:12:29.710Z,59.28
2023-01-02T13:15:22.270Z,59.34
2023-01-02T13:18:22.818Z,59.46
2023-01-02T13:21:17.123Z,59.48
2023-01-02T13:24:04.215Z,59.45
2023-01-02T13:26:52.717Z,60.13
2023-01-02T13:29:42.181Z,60.09
2023-01-02T13:32:30.422Z,60.52
2023-01-02T13:35:17.133Z,61.00
2023-01-02T13:38:06.688Z,60.98
2023-01-02T13:40:58.442Z,61.25
2023-01-02T13:43:55.206Z,61.58
2023-01-02T13:49:56.952Z,62.18
2023-01-02T13:53:14.237Z,62.69
2023-01-02T13:56:09.231Z,63.06
2023-01-02T13:59:41.916Z,63.36
2023-01-02T14:02:28.255Z,63.55
2023-01-02T14:05:52.895Z,63.29
2023-01-02T14:08:42.475Z,63.78
2023-01-02T14:11:55.696Z,63.80
2023-01-02T14:14:45.194Z,63.82
2023-01-02T14:17:44.783Z,63.24
2023-01-02T14:20:34.266Z,62.55
2023-01-02T14:23:33.340Z,61.96
2023-01-02T14:26:31.838Z,61.60
2023-01-02T14:29:18.861Z,61.57
2023-01-02T14:32:12.217Z,61.43
2023-01-02T14:34:58.639Z,61.12
2023-01-02T14:37:48.323Z,61.34
2023-01-02T14:40:38.626Z,61.36
2023-01-02T14:43:36.617Z,61.46
2023-01-02T14:46:25.881Z,61.52
2023-01-02T14:49:25.376Z,61.46
2023-01-02T14:52:25.973Z,61.42
2023-01-02T14:55:19.033Z,61.50
2023-01-02T14:58:12.258Z,61.68
2023-01-02T15:01:04.431Z,61.80
2023-01-02T15:04:03.130Z,62.14
2023-01-02T15:07:04.673Z,62.33
2023-01-02T15:10:04.290Z,62.70
2023-01-02T15:13:03.690Z,62.97
2023-01-02T15:15:56.027Z,63.01
2023-01-02T15:18:44.376Z,63.18
2023-01-02T15:21:31.812Z,63.41
2023-01-02T15:24:23.631Z,63.36
2023-01-02T15:27:30.638Z,63.62
2023-01-02T15:30:27.974Z,63.69
2023-01-02T15:33:30.553Z,63.73
2023-01-02T15:36:38.168Z,63.85
2023-01-02T15:39:32.845Z,64.19
2023-01-02T15:42:44.020Z,64.33
2023-01-02T15:45:31.333Z,64.52
2023-01-02T15:48:19.950Z,64.53
2023-01-02T15:51:06.907Z,64.65
2023-01-02T15:53:59.883Z,64.53
2023-01-02T15:56:50.169Z,65.06
2023-01-02T15:59:38.959Z,65.14
2023-01-02T16:02:35.629Z,65.37
2023-01-02T16:05:22.492Z,65.13
2023-01-02T16:08:08.994Z,65.39
2023-01-02T16:11:01.755Z,65.30
2023-01-02T16:14:12.800Z,65.43
2023-01-02T16:17:04.455Z,65.22
2023-01-02T16:19:58.500Z,65.42
2023-01-02T16:22:59.375Z,65.28
2023-01-02T16:25:47.485Z,65.61
2023-01-02T16:28:37.189Z,65.72
2023-01-02T16:31:24.113Z,65.63
2023-01-02T16:34:15.194Z,65.95
2023-01-02T16:37:16.767Z,65.93
2023-01-02T16:41:01.611Z,66.11
2023-01-02T16:43:41.027Z,66.32
2023-01-02T16:46:30.739Z,66.24
2023-01-02T16:49:22.161Z,66.35
2023-01-02T16:52:10.085Z,66.33
2023-01-02T16:54:56.984Z,66.53
2023-01-02T16:57:43.692Z,66.42
2023-01-02T17:00:30.030Z,66.94
2023-01-02T17:03:22.314Z,67.01
2023-01-02T17:06:16.508Z,66.86
2023-01-02T17:09:03.420Z,67.22
2023-01-02T17:12:02.343Z,67.34
2023-01-02T17:14:48.889Z,67.27
2023-01-02T17:17:35.796Z,67.06
2023-01-02T17:20:22.689Z,67.12
2023-01-02T17:23:09.862Z,67.14
2023-01-02T17:25:56.535Z,67.20
2023-01-02T17:28:42.828Z,67.17
2023-01-02T17:31:29.795Z,67.00
2023-01-02T17:34:16.768Z,66.89
2023-01-02T17:37:03.438Z,66.96
2023-01-02T17:39:54.140Z,66.84
2023-01-02T17:42:41.269Z,67.09
2023-01-02T17:45:27.884Z,67.11
2023-01-02T17:48:18.664Z,66.76
2023-01-02T17:51:10.257Z,66.99
2023-01-02T17:53:56.835Z,66.90
2023-01-02T17:56:43.460Z,66.88
2023-01-02T17:59:30.000Z,66.83
2023-01-02T18:02:19.110Z,66.90
2023-01-02T18:05:07.275Z,66.83
2023-01-02T18:07:54.440Z,66.75
2023-01-02T18:10:41.782Z,66.90
2023-01-02T18:13:28.924Z,66.95
2023-01-02T18:16:18.820Z,66.70
2023-01-02T18:19:22.905Z,66.52
2023-01-02T18:22:14.898Z,66.57
2023-01-02T18:25:16.072Z,66.67
2023-01-02T18:28:22.749Z,66.72
2023-01-02T18:31:16.389Z,66.80
2023-01-02T18:34:36.186Z,67.00
2023-01-02T18:37:28.893Z,66.99
2023-01-02T18:40:27.772Z,66.86
2023-01-02T18:43:28.400Z,66.86
2023-01-02T18:46:25.398Z,67.02
2023-01-02T18:49:42.027Z,66.98
2023-01-02T18:52:32.270Z,67.19
2023-01-02T18:55:28.093Z,67.50
2023-01-02T18:58:24.368Z,67.36
2023-01-02T19:01:33.153Z,67.60
2023-01-02T19:04:28.348Z,67.54
2023-01-02T19:07:24.922Z,67.46
2023-01-02T19:10:14.196Z,67.57
2023-01-02T19:13:06.783Z,67.56
2023-01-02T19:15:58.055Z,67.83
2023-01-02T19:18:46.209Z,67.77
2023-01-02T19:21:33.632Z,67.71
2023-01-02T19:24:24.213Z,68.01
2023-01-02T19:27:24.544Z,68.02
2023-01-02T19:30:28.602Z,67.96
2023-01-02T19:33:48.995Z,68.08
2023-01-02T19:36:37.179Z,67.87
2023-01-02T19:39:30.772Z,67.90
2023-01-02T19:42:21.064Z,67.82
2023-01-02T19:45:09.003Z,68.06
2023-01-02T19:47:55.619Z,68.16
2023-01-02T19:50:42.060Z,68.23
2023-01-02T19:53:29.031Z,68.14
2023-01-02T19:56:16.345Z,68.03
2023-01-02T19:59:03.013Z,68.19
2023-01-02T20:01:49.774Z,68.16
2023-01-02T20:04:36.117Z,68.19
2023-01-02T20:07:24.247Z,68.44
2023-01-02T20:10:12.038Z,68.58
2023-01-02T20:12:58.465Z,68.59
2023-01-02T20:15:45.521Z,68.75
2023-01-02T20:18:32.163Z,68.81
2023-01-02T20:21:18.982Z,68.85
2023-01-02T20:24:06.333Z,68.93
2023-01-02T20:26:54.339Z,68.82
2023-01-02T20:29:41.671Z,68.59
2023-01-02T20:32:29.323Z,68.86
2023-01-02T20:35:16.074Z,68.65
2023-01-02T20:38:02.498Z,68.76
2023-01-02T20:40:49.207Z,68.74
2023-01-02T20:43:36.166Z,68.66
2023-01-02T20:46:23.551Z,68.70
2023-01-02T20:49:10.610Z,68.67
2023-01-02T20:51:58.004Z,68.60
2023-01-02T20:54:44.892Z,68.80
2023-01-02T20:57:31.792Z,68.88
2023-01-02T21:00:19.091Z,69.01
2023-01-02T21:03:06.479Z,69.15
2023-01-02T21:05:53.880Z,68.98
2023-01-02T21:08:40.588Z,69.05
2023-01-02T21:11:28.898Z,69.26
2023-01-02T21:14:15.435Z,69.16
2023-01-02T21:17:02.011Z,69.24
2023-01-02T21:19:48.564Z,69.33
2023-01-02T21:22:34.953Z,69.27
2023-01-02T21:25:21.561Z,69.31
2023-01-02T21:28:08.264Z,69.20
2023-01-02T21:30:55.241Z,69.27
2023-01-02T21:33:41.891Z,69.44
2023-01-02T21:36:28.900Z,69.37
2023-01-02T21:39:15.671Z,69.49
2023-01-02T21:42:17.518Z,69.48
2023-01-02T21:45:04.583Z,69.58
2023-01-02T21:47:51.618Z,69.85
2023-01-02T21:50:38.002Z,69.65
2023-01-02T21:53:24.713Z,69.69
2023-01-02T21:56:11.801Z,69.73
2023-01-02T21:58:58.625Z,69.68
2023-01-02T22:01:45.471Z,69.63
2023-01-02T22:04:33.404Z,69.71
2023-01-02T22:07:39.300Z,69.46
2023-01-02T22:10:26.592Z,69.50
2023-01-02T22:13:13.382Z,69.57
2023-01-02T22:15:59.873Z,69.43
2023-01-02T22:18:47.817Z,69.20
2023-01-02T22:21:34.417Z,69.22
2023-01-02T22:24:23.653Z,69.08
2023-01-02T22:27:12.931Z,69.04
2023-01-02T22:33:07.738Z,68.95
2023-01-02T22:35:54.529Z,68.84
2023-01-02T22:39:02.398Z,68.77
2023-01-02T22:42:34.093Z,68.72
2023-01-02T22:45:24.790Z,68.64
2023-01-02T22:48:25.464Z,68.64
2023-01-02T22:51:13.696Z,68.68
2023-01-02T22:54:00.127Z,68.66
2023-01-02T22:56:47.118Z,68.56
2023-01-02T22:59:33.800Z,68.55
2023-01-02T23:02:21.180Z,68.52
2023-01-02T23:05:18.538Z,68.83
2023-01-02T23:08:05.354Z,68.66
2023-01-02T23:10:52.323Z,68.59
2023-01-02T23:13:39.383Z,68.61
2023-01-02T23:16:44.654Z,68.40
2023-01-02T23:19:31.283Z,68.43
2023-01-02T23:22:17.937Z,68.37
2023-01-02T23:25:07.565Z,68.35
2023-01-02T23:27:54.259Z,68.55
2023-01-02T23:30:41.102Z,68.43
2023-01-02T23:33:27.786Z,68.60
2023-01-02T23:36:14.875Z,68.70
2023-01-02T23:39:01.820Z,68.65
2023-01-02T23:41:49.501Z,68.69
2023-01-02T23:44:38.324Z,68.78
2023-01-02T23:47:25.304Z,69.02
2023-01-02T23:50:11.950Z,69.01
2023-01-02T23:52:58.691Z,69.04
2023-01-02T23:55:45.029Z,69.37
2023-01-02T23:58:31.593Z,69.67
